Time;durP1;ratioP1;P1;durP2;ratioP2;P2;SDS_P1;SDS_P2;PMS_P1;PMS_P2;Temp;Humidity;BMP_temperature;BMP_pressure;BME280_temperature;BME280_humidity;BME280_pressure;Samples;Min_cycle;Max_cycle;Signal;HPM_P1;HPM_P2
2023/05/23 00:00:03;;;;;;;0.50;0.50;;;;;;;16.54;92.13;96713.88;29394;209;64013;-51
2023/05/23 00:00:35;;;;;;;0.70;0.70;;;;;;;16.54;92.05;96711.94;29395;219;63004;-51
2023/05/23 00:01:07;;;;;;;0.40;0.40;;;;;;;16.53;92.17;96713.06;29395;236;63008;-52
2023/05/23 00:01:38;;;;;;;0.95;0.95;;;;;;;16.49;92.20;96711.34;29395;214;63011;-52
2023/05/23 00:02:12;;;;;;;0.57;0.57;;;;;;;16.46;92.38;96712.81;29395;197;63018;-54
2023/05/23 00:02:43;;;;;;;0.40;0.40;;;;;;;16.48;93.12;96710.53;29395;207;63005;-51
2023/05/23 00:03:15;;;;;;;0.40;0.40;;;;;;;16.45;93.35;96713.94;29395;220;63009;-51
2023/05/23 00:03:48;;;;;;;0.50;0.50;;;;;;;16.41;93.54;96715.75;29395;286;63005;-54
2023/05/23 00:04:19;;;;;;;0.70;0.70;;;;;;;16.38;92.87;96705.44;29395;202;63009;-52
2023/05/23 00:04:51;;;;;;;0.40;0.40;;;;;;;16.38;93.52;96713.66;29395;197;63005;-56
2023/05/23 00:05:22;;;;;;;1.25;0.90;;;;;;;16.46;93.72;96712.81;29394;209;64013;-55
2023/05/23 00:05:55;;;;;;;1.67;1.62;;;;;;;16.55;93.53;96705.31;29395;211;63004;-51
2023/05/23 00:06:26;;;;;;;0.45;0.45;;;;;;;16.52;93.95;96705.19;29395;209;63009;-52
2023/05/23 00:06:57;;;;;;;0.50;0.50;;;;;;;16.56;93.31;96715.13;29394;218;64009;-52
2023/05/23 00:07:31;;;;;;;0.62;0.62;;;;;;;16.53;93.27;96709.53;29395;237;63009;-51
2023/05/23 00:08:03;;;;;;;0.47;0.47;;;;;;;16.47;94.27;96714.41;29395;235;63004;-51
2023/05/23 00:08:34;;;;;;;0.47;0.47;;;;;;;16.43;93.53;96718.94;29395;233;63015;-52
2023/05/23 00:09:06;;;;;;;0.93;0.90;;;;;;;16.42;93.36;96712.66;29395;196;63004;-52
2023/05/23 00:09:39;;;;;;;0.40;0.40;;;;;;;16.43;93.94;96714.28;29395;202;63009;-60
2023/05/23 00:10:11;;;;;;;0.50;0.50;;;;;;;16.41;93.55;96715.75;29395;237;63005;-50
2023/05/23 00:11:49;;;;;;;2.79;2.69;;;;;;;16.41;93.84;96715.75;88178;196;64004;-60
2023/05/23 00:12:21;;;;;;;0.50;0.50;;;;;;;16.42;94.15;96720.06;29394;196;64009;-50
2023/05/23 00:12:52;;;;;;;0.40;0.40;;;;;;;16.40;94.22;96716.87;29395;392;63005;-50
2023/05/23 00:13:23;;;;;;;0.45;0.45;;;;;;;16.38;93.51;96716.41;29395;216;63009;-51
2023/05/23 00:13:59;;;;;;;0.40;0.40;;;;;;;16.36;93.41;96713.19;29395;232;63005;-53
2023/05/23 00:14:32;;;;;;;0.40;0.40;;;;;;;16.36;93.80;96721.41;29394;218;64013;-55
2023/05/23 00:15:08;;;;;;;0.50;0.50;;;;;;;16.35;93.79;96722.53;29395;218;63004;-52
2023/05/23 00:15:41;;;;;;;0.50;0.50;;;;;;;16.36;94.33;96724.16;29395;280;63009;-51
2023/05/23 00:16:12;;;;;;;0.40;0.40;;;;;;;16.36;94.25;96721.41;29395;204;63004;-52
2023/05/23 00:16:48;;;;;;;0.47;0.47;;;;;;;16.41;94.54;96716.53;29395;215;63009;-53
2023/05/23 00:17:20;;;;;;;0.40;0.40;;;;;;;16.46;94.54;96712.00;29395;294;63004;-51
2023/05/23 00:17:52;;;;;;;0.75;0.75;;;;;;;16.56;94.60;96717.88;29395;289;63020;-55
2023/05/23 00:18:23;;;;;;;0.50;0.50;;;;;;;16.56;94.28;96717.88;29395;203;63005;-52
2023/05/23 00:18:56;;;;;;;0.40;0.40;;;;;;;16.59;94.17;96719.16;29395;197;63009;-55
2023/05/23 00:19:28;;;;;;;2.08;1.98;;;;;;;16.69;94.14;96716.00;29395;224;63005;-54
2023/05/23 00:19:59;;;;;;;0.50;0.50;;;;;;;16.65;94.26;96715.87;29394;305;64013;-52
2023/05/23 00:20:31;;;;;;;0.47;0.47;;;;;;;16.58;94.51;96715.59;29395;311;63005;-52
2023/05/23 00:21:02;;;;;;;0.50;0.50;;;;;;;16.51;94.05;96712.59;29395;197;63009;-53
2023/05/23 00:21:33;;;;;;;0.50;0.50;;;;;;;16.48;94.50;96707.00;29395;224;63005;-52
2023/05/23 00:22:05;;;;;;;0.82;0.82;;;;;;;16.44;94.65;96717.81;29395;204;63016;-52
2023/05/23 00:22:38;;;;;;;0.50;0.50;;;;;;;16.41;94.71;96715.75;29395;203;63004;-53
2023/05/23 00:23:17;;;;;;;5.05;4.62;;;;;;;16.44;95.29;96715.06;29395;236;63009;-51
2023/05/23 00:23:50;;;;;;;0.50;0.50;;;;;;;16.45;94.97;96711.19;29395;238;63004;-53
2023/05/23 00:24:21;;;;;;;1.77;1.75;;;;;;;16.41;95.77;96710.25;29394;215;64013;-52
2023/05/23 00:24:53;;;;;;;0.43;0.43;;;;;;;16.36;95.85;96707.72;29395;233;63004;-52
2023/05/23 00:25:32;;;;;;;5.40;5.18;;;;;;;16.32;95.76;96715.00;29395;232;63008;-53
2023/05/23 00:26:04;;;;;;;0.60;0.60;;;;;;;16.33;95.84;96708.37;29395;203;63005;-52
2023/05/23 00:26:36;;;;;;;2.25;2.15;;;;;;;16.44;95.93;96709.59;29395;203;63009;-54
2023/05/23 00:27:08;;;;;;;1.23;1.23;;;;;;;16.49;95.43;96712.12;29394;230;64009;-52
2023/05/23 00:27:39;;;;;;;0.40;0.40;;;;;;;16.49;95.09;96706.66;29395;248;63009;-54
2023/05/23 00:28:10;;;;;;;0.50;0.50;;;;;;;16.46;94.87;96712.81;29395;227;63005;-55
2023/05/23 00:28:41;;;;;;;0.73;0.73;;;;;;;16.50;95.42;96713.75;29395;220;63009;-61
2023/05/23 00:29:15;;;;;;;0.50;0.50;;;;;;;16.47;95.52;96710.88;29395;219;63005;-53
2023/05/23 00:29:47;;;;;;;0.40;0.40;;;;;;;16.44;95.29;96715.06;29395;238;63009;-51
2023/05/23 00:30:19;;;;;;;0.85;0.85;;;;;;;16.43;95.49;96708.00;29395;212;63004;-53
2023/05/23 00:30:50;;;;;;;0.50;0.50;;;;;;;16.42;95.34;96712.66;29395;238;63009;-53
2023/05/23 00:31:22;;;;;;;0.93;0.93;;;;;;;16.41;95.86;96713.00;29395;229;63004;-53
2023/05/23 00:31:54;;;;;;;0.40;0.40;;;;;;;16.41;95.84;96716.53;29395;215;63009;-53
2023/05/23 00:32:25;;;;;;;0.40;0.40;;;;;;;16.37;95.85;96707.38;29394;249;64008;-53
2023/05/23 00:32:57;;;;;;;0.40;0.40;;;;;;;16.35;95.55;96719.81;29395;216;63008;-54
2023/05/23 00:33:32;;;;;;;0.40;0.40;;;;;;;16.35;95.75;96711.59;29395;197;63005;-53
2023/05/23 00:34:03;;;;;;;0.50;0.50;;;;;;;16.35;96.11;96708.84;29395;203;63009;-54
2023/05/23 00:34:35;;;;;;;0.40;0.40;;;;;;;16.35;95.75;96711.59;29395;197;63005;-53
2023/05/23 00:35:08;;;;;;;0.50;0.50;;;;;;;16.37;96.11;96709.31;29395;199;63011;-54
2023/05/23 00:35:41;;;;;;;0.50;0.50;;;;;;;16.38;96.33;96710.94;29395;199;63005;-54
2023/05/23 00:36:12;;;;;;;0.40;0.40;;;;;;;16.37;96.41;96710.13;29395;233;63018;-56
2023/05/23 00:36:46;;;;;;;0.45;0.45;;;;;;;16.38;96.31;96711.72;29395;209;63005;-53
2023/05/23 00:37:17;;;;;;;0.50;0.50;;;;;;;16.39;96.31;96712.53;29395;239;63009;-53
2023/05/23 00:37:50;;;;;;;0.50;0.50;;;;;;;16.40;96.38;96714.94;29394;210;64009;-54
2023/05/23 00:38:21;;;;;;;0.40;0.40;;;;;;;16.38;96.15;96700.78;29395;221;63014;-53
2023/05/23 00:38:54;;;;;;;0.50;0.50;;;;;;;16.38;96.39;96708.19;29395;333;63004;-55
2023/05/23 00:39:25;;;;;;;0.40;0.40;;;;;;;16.37;96.34;96709.31;29395;213;63009;-55
2023/05/23 00:39:59;;;;;;;0.50;0.50;;;;;;;16.37;96.32;96714.81;29395;257;63004;-53
2023/05/23 00:40:30;;;;;;;0.60;0.60;;;;;;;16.35;96.30;96714.34;29395;221;63009;-55
2023/05/23 00:41:02;;;;;;;0.40;0.40;;;;;;;16.32;96.42;96710.31;29395;206;63005;-53
2023/05/23 00:42:39;;;;;;;0.44;0.44;;;;;;;16.36;96.78;96721.41;88182;215;64004;-89
2023/05/23 00:43:11;;;;;;;0.40;0.40;;;;;;;16.36;97.10;96724.94;29394;233;64009;-88
2023/05/23 00:43:42;;;;;;;0.40;0.40;;;;;;;16.34;96.66;96716.28;29395;238;63005;-91
2023/05/23 00:44:14;;;;;;;0.40;0.40;;;;;;;16.31;96.85;96727.09;29395;196;63009;-88
2023/05/23 00:44:47;;;;;;;0.50;0.50;;;;;;;16.30;97.21;96720.00;29395;344;63004;-88
2023/05/23 00:45:20;;;;;;;0.45;0.45;;;;;;;16.28;97.26;96727.78;29394;222;64013;-88
2023/05/23 00:45:52;;;;;;;0.50;0.50;;;;;;;16.26;97.67;96724.56;29395;235;63004;-87
2023/05/23 00:46:25;;;;;;;0.50;0.50;;;;;;;16.24;98.39;96726.84;29395;216;63020;-87
2023/05/23 00:46:58;;;;;;;0.40;0.40;;;;;;;16.22;98.13;96718.16;29394;215;64009;-89
2023/05/23 00:47:31;;;;;;;0.60;0.60;;;;;;;16.21;98.00;96722.03;29395;215;63008;-89
2023/05/23 00:48:03;;;;;;;0.45;0.45;;;;;;;16.24;98.24;96721.34;29395;240;63005;-88
2023/05/23 00:48:37;;;;;;;0.47;0.47;;;;;;;16.27;98.31;96726.97;29395;260;63009;-92
2023/05/23 00:49:09;;;;;;;0.40;0.40;;;;;;;16.21;97.94;96719.28;29395;219;63007;-89
2023/05/23 00:49:45;;;;;;;0.40;0.40;;;;;;;16.27;98.04;96726.19;29395;206;63009;-90
2023/05/23 00:50:33;;;;;;;0.50;0.50;;;;;;;16.22;97.90;96720.91;29394;219;64009;-89
2023/05/23 00:51:06;;;;;;;0.40;0.40;;;;;;;16.19;98.47;96713.34;29395;261;63009;-89
2023/05/23 00:51:43;;;;;;;0.50;0.50;;;;;;;16.22;98.35;96726.38;29394;243;64009;-89
2023/05/23 00:52:20;;;;;;;0.50;0.50;;;;;;;16.21;99.10;96722.03;29395;213;63009;-90
2023/05/23 00:52:51;;;;;;;0.50;0.50;;;;;;;16.21;99.39;96719.28;29395;236;63004;-91
2023/05/23 00:53:26;;;;;;;0.50;0.50;;;;;;;16.25;99.12;96722.97;29395;218;63009;-89
2023/05/23 00:54:00;;;;;;;0.40;0.40;;;;;;;16.26;99.11;96721.84;29395;232;63004;-89
2023/05/23 00:54:35;;;;;;;0.40;0.40;;;;;;;16.26;98.86;96730.03;29395;206;63008;-92
2023/05/23 00:55:10;;;;;;;0.40;0.40;;;;;;;16.28;98.97;96722.31;29395;329;63004;-89
2023/05/23 00:55:44;;;;;;;0.50;0.50;;;;;;;16.30;98.37;96730.97;29395;202;63009;-89
2023/05/23 00:56:22;;;;;;;0.50;0.50;;;;;;;16.31;98.33;96724.34;29394;202;64008;-89
2023/05/23 00:56:58;;;;;;;0.40;0.40;;;;;;;16.29;98.63;96723.87;29394;210;64013;-89
2023/05/23 00:57:38;;;;;;;0.40;0.40;;;;;;;16.29;98.79;96730.16;29395;203;63005;-89
2023/05/23 00:58:16;;;;;;;0.50;0.50;;;;;;;16.30;98.55;96726.28;29395;290;63009;-90
2023/05/23 00:58:49;;;;;;;0.40;0.40;;;;;;;16.31;98.63;96729.81;29395;198;63005;-91
2023/05/23 00:59:26;;;;;;;0.47;0.47;;;;;;;16.28;98.74;96722.31;29395;202;63009;-89
2023/05/23 00:59:57;;;;;;;0.50;0.50;;;;;;;16.26;98.67;96730.03;29395;282;63004;-90
2023/05/23 01:00:30;;;;;;;0.40;0.40;;;;;;;16.22;99.06;96735.38;29395;208;63009;-89
2023/05/23 01:01:02;;;;;;;0.50;0.50;;;;;;;16.22;99.53;96734.59;29395;237;63004;-89
2023/05/23 01:01:35;;;;;;;1.40;1.37;;;;;;;16.20;99.46;96731.37;29395;220;63008;-89
2023/05/23 01:02:09;;;;;;;0.40;0.40;;;;;;;16.21;99.56;96727.50;29394;234;64008;-90
2023/05/23 01:02:45;;;;;;;0.50;0.50;;;;;;;16.24;99.13;96732.31;29395;223;63009;-89
2023/05/23 01:03:18;;;;;;;0.50;0.50;;;;;;;16.32;98.54;96728.69;29395;322;63005;-89
2023/05/23 01:03:50;;;;;;;0.43;0.43;;;;;;;16.31;98.35;96733.34;29395;343;63009;-91
2023/05/23 01:04:25;;;;;;;0.50;0.50;;;;;;;16.38;98.01;96728.16;29395;202;63005;-87
2023/05/23 01:04:57;;;;;;;0.50;0.50;;;;;;;16.38;98.03;96730.91;29395;254;63016;-89
2023/05/23 01:05:28;;;;;;;0.75;0.75;;;;;;;16.41;97.59;96732.97;29395;224;63005;-89
2023/05/23 01:06:01;;;;;;;0.40;0.40;;;;;;;16.40;97.17;96731.37;29395;264;63009;-89
2023/05/23 01:06:33;;;;;;;0.40;0.40;;;;;;;16.40;97.33;96725.09;29394;203;64009;-88
2023/05/23 01:07:05;;;;;;;0.40;0.40;;;;;;;16.41;97.30;96732.16;29395;202;63004;-88
2023/05/23 01:07:36;;;;;;;0.40;0.40;;;;;;;16.44;97.14;96726.03;29395;196;63004;-89
2023/05/23 01:08:08;;;;;;;0.82;0.82;;;;;;;16.45;96.85;96733.09;29394;198;64013;-89
2023/05/23 01:08:41;;;;;;;0.50;0.50;;;;;;;16.47;96.85;96725.34;29395;212;63004;-87
2023/05/23 01:09:15;;;;;;;0.40;0.40;;;;;;;16.52;96.94;96727.09;29395;279;63008;-91
2023/05/23 01:09:48;;;;;;;2.28;0.90;;;;;;;16.58;96.24;96726.56;29395;202;63005;-88
2023/05/23 01:10:29;;;;;;;0.50;0.50;;;;;;;16.60;95.81;96724.28;29395;233;63009;-90
2023/05/23 01:11:12;;;;;;;0.50;0.50;;;;;;;16.48;96.08;96724.22;29395;234;63005;-90
2023/05/23 01:12:33;;;;;;;0.40;0.40;;;;;;;16.47;96.69;96730.03;29395;218;63009;-89
2023/05/23 01:13:28;;;;;;;0.40;0.40;;;;;;;16.39;97.04;96729.75;29395;203;63009;-89
2023/05/23 01:14:23;;;;;;;1.23;1.23;;;;;;;16.39;97.37;96734.44;29394;324;64009;-89
2023/05/23 01:15:13;;;;;;;0.60;0.60;;;;;;;16.49;96.65;96725.81;29395;288;63009;-91
2023/05/23 01:16:06;;;;;;;0.50;0.50;;;;;;;16.50;96.37;96735.66;29395;288;63004;-89
2023/05/23 01:16:52;;;;;;;0.40;0.40;;;;;;;16.47;96.39;96732.78;29395;196;63008;-89
2023/05/23 01:17:52;;;;;;;0.40;0.40;;;;;;;16.45;96.67;96733.09;29395;227;63005;-89
2023/05/23 01:18:37;;;;;;;0.50;0.50;;;;;;;16.46;96.55;96734.72;29394;309;64014;-90
2023/05/23 01:20:07;;;;;;;1.65;0.80;;;;;;;16.52;96.48;96729.84;29394;198;64009;-88
2023/05/23 01:20:48;;;;;;;0.50;0.50;;;;;;;16.45;96.30;96730.38;29395;233;63009;-89
2023/05/23 01:21:23;;;;;;;0.57;0.57;;;;;;;16.47;96.61;96733.56;29417;226;63005;-89
2023/05/23 01:22:12;;;;;;;0.50;0.50;;;;;;;16.46;96.27;96726.50;29395;202;63009;-88
2023/05/23 01:23:10;;;;;;;0.50;0.50;;;;;;;16.40;96.64;96733.31;29394;356;64009;-91
2023/05/23 01:24:25;;;;;;;0.40;0.40;;;;;;;16.33;97.15;96735.75;29394;202;64013;-89
2023/05/23 01:25:58;;;;;;;0.40;0.40;;;;;;;16.21;97.71;96722.03;29395;286;63005;-89
2023/05/23 01:26:58;;;;;;;0.80;0.80;;;;;;;16.31;97.77;96733.34;29417;323;63009;-88
2023/05/23 01:28:00;;;;;;;0.93;0.88;;;;;;;16.38;97.72;96741.84;29394;270;64009;-89
2023/05/23 01:29:49;;;;;;;1.54;0.62;;;;;;;16.36;97.54;96732.38;88174;209;64004;-52
2023/05/23 01:30:22;;;;;;;0.50;0.50;;;;;;;16.32;97.25;96734.16;29416;298;64009;-51
2023/05/23 01:31:02;;;;;;;0.60;0.60;;;;;;;16.27;97.25;96731.66;29395;233;63004;-52
2023/05/23 01:31:36;;;;;;;0.40;0.40;;;;;;;16.27;97.50;96737.94;29417;362;63004;-51
2023/05/23 01:32:10;;;;;;;0.43;0.43;;;;;;;16.26;97.74;96733.59;29395;228;63004;-53
2023/05/23 01:32:44;;;;;;;0.50;0.50;;;;;;;16.28;97.65;96734.06;29394;203;64013;-52
2023/05/23 01:33:17;;;;;;;0.47;0.47;;;;;;;16.29;97.59;96730.16;29395;222;63004;-52
2023/05/23 01:33:52;;;;;;;0.60;0.60;;;;;;;16.30;97.78;96737.22;29395;198;63008;-54
2023/05/23 01:34:23;;;;;;;0.50;0.50;;;;;;;16.29;97.70;96734.81;29395;232;63005;-53
2023/05/23 01:34:56;;;;;;;0.70;0.70;;;;;;;16.31;97.83;96738.84;29395;211;63009;-52
2023/05/23 01:35:27;;;;;;;0.60;0.60;;;;;;;16.30;97.73;96733.69;29395;294;63007;-52
2023/05/23 01:36:04;;;;;;;0.40;0.40;;;;;;;16.30;98.08;96731.75;29395;202;63009;-53
2023/05/23 01:36:41;;;;;;;0.40;0.40;;;;;;;16.32;97.68;96728.69;29395;205;63005;-52
2023/05/23 01:37:13;;;;;;;0.50;0.50;;;;;;;16.30;97.51;96733.69;29394;212;64013;-52
2023/05/23 01:37:45;;;;;;;0.50;0.50;;;;;;;16.27;97.62;96732.44;29395;217;63005;-52
2023/05/23 01:38:17;;;;;;;0.40;0.40;;;;;;;16.25;98.06;96728.44;29394;202;64013;-52
2023/05/23 01:38:48;;;;;;;0.57;0.57;;;;;;;16.24;98.12;96735.06;29395;205;63004;-52
2023/05/23 01:39:19;;;;;;;0.60;0.60;;;;;;;16.22;98.19;96731.84;29395;240;63009;-51
2023/05/23 01:39:50;;;;;;;0.40;0.40;;;;;;;16.21;97.96;96733.78;29395;234;63004;-52
2023/05/23 01:40:23;;;;;;;0.40;0.40;;;;;;;16.21;98.01;96733.78;29395;197;63009;-62
2023/05/23 01:40:57;;;;;;;0.40;0.40;;;;;;;16.19;98.29;96732.50;29395;202;63009;-52
2023/05/23 01:41:28;;;;;;;1.30;1.25;;;;;;;16.18;98.23;96728.97;29395;295;63008;-52
2023/05/23 01:42:00;;;;;;;0.50;0.50;;;;;;;16.18;98.08;96733.63;29395;215;63005;-54
2023/05/23 01:42:33;;;;;;;0.93;0.93;;;;;;;16.18;98.25;96734.44;29394;216;64014;-51
2023/05/23 01:43:04;;;;;;;0.40;0.40;;;;;;;16.18;98.31;96736.38;29395;221;63005;-52
2023/05/23 01:44:42;;;;;;;0.47;0.47;;;;;;;16.12;98.64;96741.25;88182;195;64004;-91
2023/05/23 01:45:15;;;;;;;0.47;0.47;;;;;;;16.11;98.40;96734.16;29394;256;64009;-89
2023/05/23 01:45:48;;;;;;;0.50;0.50;;;;;;;16.08;98.90;96741.09;29395;197;63005;-88
2023/05/23 01:46:22;;;;;;;0.50;0.50;;;;;;;16.06;98.91;96737.88;29395;197;63009;-91
2023/05/23 01:46:53;;;;;;;0.50;0.50;;;;;;;16.04;99.57;96742.09;29395;231;63005;-91
2023/05/23 01:47:26;;;;;;;0.50;0.50;;;;;;;16.02;99.45;96742.41;29395;232;63009;-88
2023/05/23 01:48:02;;;;;;;0.52;0.52;;;;;;;16.11;98.98;96741.56;29394;215;64009;-90
2023/05/23 01:48:35;;;;;;;0.60;0.60;;;;;;;16.13;99.23;96747.50;29395;246;63009;-88
2023/05/23 01:49:11;;;;;;;0.40;0.40;;;;;;;16.16;98.79;96742.19;29395;196;63004;-89
2023/05/23 01:49:45;;;;;;;0.40;0.40;;;;;;;16.12;98.98;96734.97;29395;225;63009;-88
2023/05/23 01:50:17;;;;;;;0.50;0.50;;;;;;;16.13;98.94;96744.78;29395;220;63004;-88
2023/05/23 01:50:49;;;;;;;0.40;0.40;;;;;;;16.16;99.12;96746.84;29394;243;64013;-87
2023/05/23 01:51:22;;;;;;;0.43;0.43;;;;;;;16.15;99.17;96745.25;29395;309;63000;-89
2023/05/23 01:51:54;;;;;;;0.47;0.47;;;;;;;16.16;98.75;96744.91;29394;198;64014;-87
2023/05/23 01:52:25;;;;;;;0.60;0.60;;;;;;;16.14;98.87;96746.37;29395;339;63005;-87
2023/05/23 01:52:58;;;;;;;0.60;0.60;;;;;;;16.20;98.94;96739.59;29395;202;63009;-88
2023/05/23 01:53:31;;;;;;;0.50;0.50;;;;;;;16.18;98.27;96739.13;29395;231;63005;-89
2023/05/23 01:54:03;;;;;;;0.40;0.40;;;;;;;16.16;98.54;96741.38;29394;248;64013;-89
2023/05/23 01:54:37;;;;;;;0.68;0.68;;;;;;;16.19;99.05;96746.19;29395;366;63005;-89
2023/05/23 01:55:13;;;;;;;0.50;0.50;;;;;;;16.16;98.58;96741.38;29395;228;63009;-89
2023/05/23 01:55:45;;;;;;;0.50;0.50;;;;;;;16.15;98.71;96735.09;29395;209;63005;-89
2023/05/23 01:56:18;;;;;;;1.30;1.30;;;;;;;16.12;98.71;96741.25;29394;212;64013;-89
2023/05/23 01:56:56;;;;;;;0.50;0.50;;;;;;;16.16;98.89;96741.38;29395;221;63004;-90
2023/05/23 01:57:29;;;;;;;0.50;0.50;;;;;;;16.18;98.98;96750.06;29395;225;63009;-91
2023/05/23 01:58:02;;;;;;;0.40;0.40;;;;;;;16.17;98.48;96742.97;29395;237;63004;-91
2023/05/23 01:58:36;;;;;;;0.50;0.50;;;;;;;16.09;98.58;96737.22;29395;202;63008;-90
2023/05/23 02:00:17;;;;;;;2.28;2.18;;;;;;;16.08;99.30;96741.09;88182;231;64005;-90
2023/05/23 02:00:49;;;;;;;0.50;0.50;;;;;;;16.08;99.15;96740.28;29394;328;64009;-88
2023/05/23 02:01:24;;;;;;;1.08;1.08;;;;;;;16.05;99.73;96741.75;29394;206;64009;-90
2023/05/23 02:01:56;;;;;;;0.40;0.40;;;;;;;16.02;99.81;96742.41;29395;240;63009;-89
2023/05/23 02:02:29;;;;;;;0.50;0.50;;;;;;;16.01;99.78;96738.06;29395;227;63005;-90
2023/05/23 02:03:08;;;;;;;0.50;0.50;;;;;;;16.00;100.00;96739.22;29395;244;63009;-89
2023/05/23 02:03:42;;;;;;;0.50;0.50;;;;;;;15.99;100.00;96737.59;29416;198;64009;-89
2023/05/23 02:04:15;;;;;;;0.50;0.50;;;;;;;15.94;100.00;96742.50;29395;211;63009;-89
2023/05/23 02:04:48;;;;;;;0.50;0.50;;;;;;;15.93;100.00;96747.16;29395;203;63004;-90
2023/05/23 02:05:21;;;;;;;0.50;0.50;;;;;;;15.92;100.00;96748.28;29395;203;63009;-87
2023/05/23 02:05:52;;;;;;;0.50;0.50;;;;;;;15.90;100.00;96742.34;29395;287;63004;-91
2023/05/23 02:06:26;;;;;;;0.50;0.50;;;;;;;15.88;100.00;96741.88;29395;197;63009;-89
2023/05/23 02:06:58;;;;;;;0.50;0.50;;;;;;;15.88;100.00;96743.81;29395;204;63004;-88
2023/05/23 02:07:30;;;;;;;0.50;0.50;;;;;;;15.88;100.00;96749.28;29394;215;64013;-90
2023/05/23 02:08:01;;;;;;;0.40;0.40;;;;;;;15.85;100.00;96748.00;29394;197;64009;-88
2023/05/23 02:08:32;;;;;;;0.40;0.40;;;;;;;15.83;100.00;96744.00;29395;238;63009;-90
2023/05/23 02:09:04;;;;;;;0.50;0.50;;;;;;;15.83;100.00;96744.00;29395;239;63005;-89
2023/05/23 02:09:37;;;;;;;0.43;0.43;;;;;;;15.82;100.00;96742.38;29395;236;63009;-90
2023/05/23 02:10:10;;;;;;;0.50;0.50;;;;;;;15.80;100.00;96745.44;29395;203;63005;-89
2023/05/23 02:10:41;;;;;;;0.40;0.40;;;;;;;15.80;100.00;96742.72;29394;197;64009;-89
2023/05/23 02:11:13;;;;;;;0.40;0.40;;;;;;;15.82;100.00;96748.66;29395;305;63005;-90
2023/05/23 02:11:45;;;;;;;0.50;0.50;;;;;;;15.82;100.00;96745.94;29395;220;63017;-91
2023/05/23 02:12:16;;;;;;;0.50;0.50;;;;;;;15.86;100.00;96744.13;29395;230;63004;-88
2023/05/23 02:12:47;;;;;;;0.50;0.50;;;;;;;15.88;100.00;96746.53;29394;203;64013;-90
2023/05/23 02:13:19;;;;;;;0.47;0.47;;;;;;;15.84;100.00;96738.19;29395;197;63004;-91
2023/05/23 02:13:50;;;;;;;0.47;0.47;;;;;;;15.86;100.00;96749.59;29395;305;63009;-90
2023/05/23 02:14:22;;;;;;;0.40;0.40;;;;;;;15.83;100.00;96750.25;29395;204;63004;-89
2023/05/23 02:14:56;;;;;;;0.50;0.50;;;;;;;15.88;100.00;96750.09;29395;224;63008;-89
2023/05/23 02:15:27;;;;;;;0.70;0.70;;;;;;;15.87;100.00;96742.19;29395;226;63004;-89
2023/05/23 02:16:15;;;;;;;0.50;0.50;;;;;;;15.86;100.00;96743.34;29395;221;63009;-91
2023/05/23 02:16:46;;;;;;;0.50;0.50;;;;;;;15.83;100.00;96744.00;29395;231;63005;-89
2023/05/23 02:17:18;;;;;;;0.40;0.40;;;;;;;15.82;100.00;96745.94;29395;229;63009;-90
2023/05/23 02:17:50;;;;;;;0.50;0.50;;;;;;;15.80;100.00;96745.44;29394;210;64009;-89
2023/05/23 02:18:25;;;;;;;0.40;0.40;;;;;;;15.76;100.00;96744.50;29395;332;63009;-90
2023/05/23 02:19:00;;;;;;;0.40;0.40;;;;;;;15.75;100.00;96745.63;29395;293;63005;-89
2023/05/23 02:19:32;;;;;;;0.40;0.40;;;;;;;15.71;100.00;96742.75;29395;200;63009;-90
2023/05/23 02:20:06;;;;;;;0.45;0.45;;;;;;;15.75;100.00;96753.84;29395;220;63004;-91
2023/05/23 02:20:39;;;;;;;0.73;0.73;;;;;;;15.75;100.00;96751.09;29394;204;64013;-91
2023/05/23 02:21:11;;;;;;;0.50;0.50;;;;;;;15.76;100.00;96747.25;29395;218;63004;-89
2023/05/23 02:21:42;;;;;;;0.40;0.40;;;;;;;15.81;100.00;96741.59;29395;222;63009;-90
2023/05/23 02:22:14;;;;;;;0.40;0.40;;;;;;;15.82;100.00;96743.19;29395;243;63004;-91
2023/05/23 02:22:47;;;;;;;0.40;0.40;;;;;;;15.79;100.00;96743.03;29395;232;63008;-91
2023/05/23 02:23:20;;;;;;;0.40;0.40;;;;;;;15.80;100.00;96739.19;29395;231;63005;-90
2023/05/23 02:23:51;;;;;;;0.50;0.50;;;;;;;15.80;100.00;96742.72;29395;264;63009;-90
2023/05/23 02:24:23;;;;;;;0.43;0.43;;;;;;;15.78;100.00;96736.78;29394;241;64009;-90
2023/05/23 02:24:55;;;;;;;0.50;0.50;;;;;;;15.75;100.00;96748.38;29395;221;63009;-90
2023/05/23 02:25:26;;;;;;;0.60;0.60;;;;;;;15.72;100.00;96743.56;29395;228;63005;-90
2023/05/23 02:25:57;;;;;;;0.50;0.50;;;;;;;15.69;100.00;96747.75;29395;292;63009;-89
2023/05/23 02:26:29;;;;;;;0.50;0.50;;;;;;;15.63;100.00;96740.06;29395;212;63005;-90
2023/05/23 02:27:01;;;;;;;0.50;0.50;;;;;;;15.66;100.00;96747.59;29395;218;63009;-91
2023/05/23 02:27:33;;;;;;;0.40;0.40;;;;;;;15.60;100.00;96737.97;29395;214;63004;-89
2023/05/23 02:28:05;;;;;;;0.43;0.43;;;;;;;15.65;100.00;96740.53;29395;263;63009;-89
2023/05/23 02:28:38;;;;;;;0.50;0.50;;;;;;;15.64;100.00;96741.66;29395;278;63004;-90
2023/05/23 02:29:11;;;;;;;0.50;0.50;;;;;;;15.63;100.00;96745.53;29395;236;63009;-89
2023/05/23 02:30:47;;;;;;;0.64;0.64;;;;;;;15.62;100.00;96743.91;88182;202;64004;-87
2023/05/23 02:31:18;;;;;;;0.40;0.40;;;;;;;15.61;100.00;96743.12;29394;197;64009;-90
2023/05/23 02:31:50;;;;;;;0.45;0.45;;;;;;;15.60;100.00;96740.69;29395;240;63005;-90
2023/05/23 02:32:21;;;;;;;0.50;0.50;;;;;;;15.59;100.00;96739.13;29395;197;63009;-89
2023/05/23 02:32:56;;;;;;;0.50;0.50;;;;;;;15.58;100.00;96745.72;29395;292;63005;-89
2023/05/23 02:33:27;;;;;;;0.50;0.50;;;;;;;15.58;100.00;96748.47;29395;213;63024;-89
2023/05/23 02:34:00;;;;;;;0.50;0.50;;;;;;;15.61;100.00;96747.78;29395;233;63005;-90
2023/05/23 02:34:31;;;;;;;0.50;0.50;;;;;;;15.63;100.00;96740.84;29395;232;63016;-89
2023/05/23 02:35:05;;;;;;;0.50;0.50;;;;;;;15.73;100.00;96745.97;29395;224;63004;-90
2023/05/23 02:35:36;;;;;;;0.40;0.40;;;;;;;15.74;100.00;96744.03;29395;225;63022;-91
2023/05/23 02:36:08;;;;;;;0.50;0.50;;;;;;;15.73;100.00;96742.41;29394;229;64009;-78
2023/05/23 02:36:39;;;;;;;0.40;0.40;;;;;;;15.69;100.00;96745.00;29394;236;64013;-90
2023/05/23 02:37:20;;;;;;;0.40;0.40;;;;;;;15.66;100.00;96739.41;29395;246;63004;-89
2023/05/23 02:37:52;;;;;;;0.40;0.40;;;;;;;15.61;100.00;96747.78;29417;314;63009;-90
2023/05/23 02:38:25;;;;;;;0.40;0.40;;;;;;;15.62;100.00;96744.72;29395;328;63005;-89
2023/05/23 02:38:57;;;;;;;0.40;0.40;;;;;;;15.61;100.00;96750.50;29394;252;64014;-90
2023/05/23 02:39:29;;;;;;;0.40;0.40;;;;;;;15.61;100.00;96751.31;29395;227;63005;-90
2023/05/23 02:40:01;;;;;;;0.50;0.50;;;;;;;15.57;100.00;96742.19;29395;198;63009;-90
2023/05/23 02:40:32;;;;;;;0.40;0.40;;;;;;;15.61;100.00;96750.50;29395;199;63005;-92
2023/05/23 02:41:05;;;;;;;0.40;0.40;;;;;;;15.61;100.00;96753.25;29395;246;63009;-90
2023/05/23 02:41:36;;;;;;;0.43;0.43;;;;;;;15.60;100.00;96752.44;29395;214;63005;-90
2023/05/23 02:42:08;;;;;;;0.50;0.50;;;;;;;15.60;100.00;96754.37;29394;202;64013;-90
2023/05/23 02:42:39;;;;;;;0.50;0.50;;;;;;;15.60;100.00;96746.19;29395;235;63004;-91
2023/05/23 02:43:11;;;;;;;2.00;1.90;;;;;;;15.62;100.00;96752.13;29395;203;63009;-89
2023/05/23 02:43:45;;;;;;;0.50;0.50;;;;;;;15.63;100.00;96751.78;29394;281;64009;-89
2023/05/23 02:44:18;;;;;;;0.40;0.40;;;;;;;15.66;100.00;96748.41;29395;215;63009;-89
2023/05/23 02:44:50;;;;;;;0.40;0.40;;;;;;;15.64;100.00;96747.94;29395;196;63004;-90
2023/05/23 02:45:23;;;;;;;0.40;0.40;;;;;;;15.65;100.00;96759.66;29394;229;64014;-90
2023/05/23 02:45:54;;;;;;;0.40;0.40;;;;;;;15.68;100.00;96750.81;29395;199;63005;-88
2023/05/23 02:46:25;;;;;;;0.40;0.40;;;;;;;15.65;100.00;96751.47;29395;206;63009;-90
2023/05/23 02:46:57;;;;;;;0.40;0.40;;;;;;;15.61;100.00;96751.31;29395;219;63005;-90
2023/05/23 02:47:28;;;;;;;0.62;0.62;;;;;;;15.54;100.00;96747.47;29395;239;63009;-89
2023/05/23 02:48:00;;;;;;;0.40;0.40;;;;;;;15.62;100.00;96743.91;29394;260;64009;-91
2023/05/23 02:48:33;;;;;;;0.40;0.40;;;;;;;15.63;100.00;96749.06;29395;340;63015;-89
2023/05/23 02:49:05;;;;;;;0.40;0.40;;;;;;;15.60;100.00;96752.44;29395;226;63005;-90
2023/05/23 02:49:36;;;;;;;0.85;0.85;;;;;;;15.61;100.00;96753.25;29395;208;63009;-90
2023/05/23 02:50:10;;;;;;;1.12;1.12;;;;;;;15.60;100.00;96751.66;29395;235;63004;-90